SLSJ weather

Salinas Airport
Ladislao Cabrera, Oruro Department, Bolivia

Public forecast

Using degrees Celsius for public forecast. Weather courtesy of forecast.io.

Closest aviation weather report (METAR) to Salinas Airport

Report is more than 6 hours old.

Closest report is Uyuni Airport, 63.1 nm (116.8 km) SSE. Retrieved 2020/04/09 14:00 UTC (2 months ago):

SLUY 091400Z 00000KT 9999 NSC 14/M03 Q1037

Closest aviation forecast (TAF) to Salinas Airport

Forecast is more than 12 hours old.

Closest forecast is Uyuni Airport, 63.1 nm (116.8 km) SSE. Retrieved 2020/05/30 18:20 UTC (1 day ago):

TAF SLUY 301600Z 3018/3118 30012G22KT 9999 FEW027 TX18/3020Z TNM12/ 3110Z BECMG 3101/3104 04006KT BECMG 3114/3117 32013KT